Time;durP1;ratioP1;P1;durP2;ratioP2;P2;SDS_P1;SDS_P2;PMS_P1;PMS_P2;Temp;Humidity;BMP_temperature;BMP_pressure;BME280_temperature;BME280_humidity;BME280_pressure;Samples;Min_cycle;Max_cycle;Signal;HPM_P1;HPM_P2
2022/07/06 00:04:28;;;;;;;5.10;0.90;;;;;;;;;;10291341;28;20083;-65
2022/07/06 00:09:24;;;;;;;8.02;1.48;;;;;;;;;;10276484;28;20532;-65
2022/07/06 00:14:21;;;;;;;3.33;0.98;;;;;;;;;;10280549;28;20041;-66
2022/07/06 00:19:17;;;;;;;6.28;0.90;;;;;;;;;;10271021;28;20136;-66
2022/07/06 00:24:14;;;;;;;6.30;1.33;;;;;;;;;;10286830;28;20098;-67
2022/07/06 00:29:10;;;;;;;7.28;1.10;;;;;;;;;;10286872;28;20528;-67
2022/07/06 00:34:06;;;;;;;5.57;1.17;;;;;;;;;;10278116;28;20551;-67
2022/07/06 00:39:02;;;;;;;6.65;1.23;;;;;;;;;;10275889;28;20456;-66
2022/07/06 00:43:59;;;;;;;4.65;1.05;;;;;;;;;;10277829;28;20207;-66
2022/07/06 00:48:55;;;;;;;5.90;1.15;;;;;;;;;;10274724;28;20089;-66
2022/07/06 00:53:52;;;;;;;10.52;1.83;;;;;;;;;;10274227;28;20541;-68
2022/07/06 00:58:48;;;;;;;8.23;1.83;;;;;;;;;;10277718;28;20485;-66
2022/07/06 01:03:44;;;;;;;4.70;0.93;;;;;;;;;;10262750;28;20080;-68
2022/07/06 01:08:41;;;;;;;4.28;0.80;;;;;;;;;;10283435;28;20045;-68
2022/07/06 01:13:37;;;;;;;4.60;1.00;;;;;;;;;;10287847;28;20465;-68
2022/07/06 01:18:33;;;;;;;7.20;1.67;;;;;;;;;;10275236;28;20060;-68
2022/07/06 01:23:30;;;;;;;5.00;0.80;;;;;;;;;;10286234;28;20041;-67
2022/07/06 01:28:26;;;;;;;5.57;0.90;;;;;;;;;;10261559;28;20056;-67
2022/07/06 01:33:23;;;;;;;3.20;0.85;;;;;;;;;;10261454;28;20097;-67
2022/07/06 01:38:19;;;;;;;5.82;1.33;;;;;;;;;;10266982;28;20144;-67
2022/07/06 01:43:16;;;;;;;4.00;0.93;;;;;;;;;;10286007;28;20094;-66
2022/07/06 01:48:12;;;;;;;4.90;0.80;;;;;;;;;;10259234;28;20053;-67
2022/07/06 01:53:08;;;;;;;7.22;1.55;;;;;;;;;;10283436;28;20067;-67
2022/07/06 01:58:04;;;;;;;7.35;1.67;;;;;;;;;;10281042;28;20073;-67
2022/07/06 02:03:01;;;;;;;5.70;1.25;;;;;;;;;;10273623;28;21508;-67
2022/07/06 02:07:57;;;;;;;6.45;1.48;;;;;;;;;;10295206;28;20064;-66
2022/07/06 02:12:53;;;;;;;5.57;1.15;;;;;;;;;;10277064;28;20073;-66
2022/07/06 02:17:50;;;;;;;6.63;1.30;;;;;;;;;;10284766;28;20697;-66
2022/07/06 02:22:46;;;;;;;6.88;1.13;;;;;;;;;;10285342;28;20041;-66
2022/07/06 02:27:42;;;;;;;11.85;2.38;;;;;;;;;;10276362;28;20064;-66
2022/07/06 02:32:39;;;;;;;6.65;1.42;;;;;;;;;;10281646;28;20073;-65
2022/07/06 02:37:35;;;;;;;6.53;1.55;;;;;;;;;;10291063;28;20052;-66
2022/07/06 02:42:31;;;;;;;10.23;2.00;;;;;;;;;;10267164;28;20472;-66
2022/07/06 02:47:28;;;;;;;5.22;1.00;;;;;;;;;;10238270;28;20042;-65
2022/07/06 02:52:24;;;;;;;5.80;1.60;;;;;;;;;;10240324;28;20099;-68
2022/07/06 02:57:20;;;;;;;4.22;1.00;;;;;;;;;;10235223;28;20394;-66
2022/07/06 03:02:17;;;;;;;9.80;1.50;;;;;;;;;;10237003;28;20132;-66
2022/07/06 03:07:13;;;;;;;4.50;1.15;;;;;;;;;;10235274;28;20077;-66
2022/07/06 03:12:10;;;;;;;6.25;0.80;;;;;;;;;;10239894;28;20075;-67
2022/07/06 03:17:06;;;;;;;5.05;0.80;;;;;;;;;;10243678;28;20128;-67
2022/07/06 03:22:03;;;;;;;7.68;1.65;;;;;;;;;;10244014;28;20076;-67
2022/07/06 03:26:59;;;;;;;6.78;0.70;;;;;;;;;;10220931;28;20049;-66
2022/07/06 03:32:00;;;;;;;6.82;1.17;;;;;;;;;;10230808;28;20053;-65
2022/07/06 03:36:57;;;;;;;4.70;1.00;;;;;;;;;;10217966;28;20057;-65
2022/07/06 03:41:53;;;;;;;7.50;1.55;;;;;;;;;;10229839;28;20048;-64
2022/07/06 03:46:51;;;;;;;4.15;1.00;;;;;;;;;;10232967;28;20343;-65
2022/07/06 03:51:47;;;;;;;6.55;1.27;;;;;;;;;;10225501;28;20130;-64
2022/07/06 03:56:43;;;;;;;4.82;1.60;;;;;;;;;;10216702;28;20045;-65
2022/07/06 04:01:40;;;;;;;7.38;1.50;;;;;;;;;;10209194;28;20052;-65
2022/07/06 04:06:37;;;;;;;5.30;1.15;;;;;;;;;;10225782;28;20071;-65
2022/07/06 04:11:33;;;;;;;3.03;1.15;;;;;;;;;;10221439;28;20053;-65
2022/07/06 04:16:30;;;;;;;4.43;1.17;;;;;;;;;;10207887;28;20486;-64
2022/07/06 04:21:26;;;;;;;4.05;1.00;;;;;;;;;;10207016;28;20077;-65
2022/07/06 04:26:23;;;;;;;6.70;1.10;;;;;;;;;;10208226;28;20083;-65
2022/07/06 04:31:19;;;;;;;7.60;1.23;;;;;;;;;;10212824;28;20057;-65
2022/07/06 04:36:16;;;;;;;7.28;1.60;;;;;;;;;;10217753;28;20038;-65
2022/07/06 04:41:12;;;;;;;3.78;0.57;;;;;;;;;;10217425;28;20765;-63
2022/07/06 04:46:09;;;;;;;8.63;1.90;;;;;;;;;;10225383;28;20135;-64
2022/07/06 04:51:05;;;;;;;5.10;0.85;;;;;;;;;;10237584;28;20048;-64
2022/07/06 04:56:01;;;;;;;6.53;0.80;;;;;;;;;;10231439;28;20046;-64
2022/07/06 05:00:58;;;;;;;5.22;0.98;;;;;;;;;;10229462;28;20442;-64
2022/07/06 05:05:54;;;;;;;5.03;0.88;;;;;;;;;;10221038;28;20049;-66
2022/07/06 05:10:51;;;;;;;16.80;1.35;;;;;;;;;;10239683;28;20068;-64
2022/07/06 05:15:47;;;;;;;6.40;1.33;;;;;;;;;;10219371;28;20050;-64
2022/07/06 05:20:44;;;;;;;5.75;0.80;;;;;;;;;;10235550;28;20529;-64
2022/07/06 05:25:40;;;;;;;7.00;1.73;;;;;;;;;;10235455;28;20068;-64
2022/07/06 05:30:36;;;;;;;5.63;1.13;;;;;;;;;;10234693;28;20128;-65
2022/07/06 05:35:33;;;;;;;9.65;1.58;;;;;;;;;;10233648;28;20045;-65
2022/07/06 05:40:47;;;;;;;9.27;0.95;;;;;;;;;;10218184;28;20095;-65
2022/07/06 05:45:43;;;;;;;6.47;1.08;;;;;;;;;;10227543;28;20115;-65
2022/07/06 05:50:39;;;;;;;5.80;1.00;;;;;;;;;;10237535;28;20081;-65
2022/07/06 05:55:36;;;;;;;9.18;1.35;;;;;;;;;;10228384;28;20103;-65
2022/07/06 06:00:32;;;;;;;8.13;0.73;;;;;;;;;;10229466;28;20100;-65
2022/07/06 06:05:29;;;;;;;5.65;1.20;;;;;;;;;;10222132;28;20140;-65
2022/07/06 06:10:25;;;;;;;7.53;1.08;;;;;;;;;;10239116;28;20058;-66
2022/07/06 06:15:22;;;;;;;7.22;1.27;;;;;;;;;;10230608;28;20843;-66
2022/07/06 06:20:18;;;;;;;4.25;1.00;;;;;;;;;;10235798;28;20049;-65
2022/07/06 06:25:28;;;;;;;3.45;0.60;;;;;;;;;;10240316;28;20048;-66
2022/07/06 06:30:24;;;;;;;3.38;0.80;;;;;;;;;;10215202;28;20128;-65
2022/07/06 06:35:21;;;;;;;7.88;1.02;;;;;;;;;;10214023;28;20054;-65
2022/07/06 06:40:17;;;;;;;3.35;0.90;;;;;;;;;;10216518;28;20568;-65
2022/07/06 06:45:14;;;;;;;4.68;1.02;;;;;;;;;;10221237;28;20045;-66
2022/07/06 06:50:10;;;;;;;2.97;0.70;;;;;;;;;;10223296;28;20045;-65
2022/07/06 06:55:07;;;;;;;4.40;0.80;;;;;;;;;;10223309;28;20489;-65
2022/07/06 07:00:04;;;;;;;3.67;0.80;;;;;;;;;;10224122;28;20041;-66
2022/07/06 07:05:00;;;;;;;3.28;0.65;;;;;;;;;;10223010;28;20048;-65
2022/07/06 07:09:57;;;;;;;5.30;0.60;;;;;;;;;;10230142;28;20107;-65
2022/07/06 07:14:53;;;;;;;3.45;0.95;;;;;;;;;;10245474;28;20065;-65
2022/07/06 07:19:49;;;;;;;3.63;0.60;;;;;;;;;;10233079;28;20760;-65
2022/07/06 07:24:45;;;;;;;6.60;0.82;;;;;;;;;;10232417;28;20563;-65
2022/07/06 07:29:42;;;;;;;7.93;1.20;;;;;;;;;;10237412;28;20398;-66
2022/07/06 07:34:38;;;;;;;2.97;0.80;;;;;;;;;;10233511;28;20049;-66
2022/07/06 07:39:34;;;;;;;5.07;1.00;;;;;;;;;;10242764;28;20045;-66
2022/07/06 07:44:31;;;;;;;6.55;0.65;;;;;;;;;;10239749;28;20131;-66
2022/07/06 07:49:27;;;;;;;3.15;0.57;;;;;;;;;;10240799;28;20110;-65
2022/07/06 07:54:23;;;;;;;4.32;0.80;;;;;;;;;;10233048;28;20045;-66
2022/07/06 07:59:20;;;;;;;3.63;0.50;;;;;;;;;;10228829;28;20042;-66
2022/07/06 08:04:16;;;;;;;3.60;0.40;;;;;;;;;;10236695;28;20073;-66
2022/07/06 08:09:13;;;;;;;1.65;0.30;;;;;;;;;;10237106;28;20045;-66
2022/07/06 08:14:09;;;;;;;3.60;0.45;;;;;;;;;;10232528;28;20110;-65
2022/07/06 08:19:06;;;;;;;2.97;0.47;;;;;;;;;;10223386;28;20050;-66
2022/07/06 08:24:07;;;;;;;3.97;1.00;;;;;;;;;;10235601;28;20084;-66
2022/07/06 08:29:03;;;;;;;3.92;0.80;;;;;;;;;;10221729;28;20512;-66
2022/07/06 08:34:00;;;;;;;2.90;0.50;;;;;;;;;;10235297;28;20053;-66
2022/07/06 08:38:56;;;;;;;4.15;0.63;;;;;;;;;;10226676;28;20043;-66
2022/07/06 08:43:53;;;;;;;3.20;0.70;;;;;;;;;;10234842;28;20038;-66
2022/07/06 08:48:50;;;;;;;4.30;0.60;;;;;;;;;;10243696;28;20567;-65
2022/07/06 08:53:48;;;;;;;2.03;0.60;;;;;;;;;;10225283;28;20481;-66
2022/07/06 08:58:45;;;;;;;3.42;0.73;;;;;;;;;;10219213;28;20099;-66
2022/07/06 09:03:41;;;;;;;5.88;1.67;;;;;;;;;;10224437;28;20085;-66
2022/07/06 09:08:38;;;;;;;5.30;1.10;;;;;;;;;;10224432;28;20065;-66
2022/07/06 09:13:34;;;;;;;3.90;0.70;;;;;;;;;;10230527;28;20098;-66
2022/07/06 09:18:30;;;;;;;4.10;0.47;;;;;;;;;;10234915;28;20141;-66
2022/07/06 09:23:27;;;;;;;3.85;0.43;;;;;;;;;;10226986;28;20046;-66
2022/07/06 09:28:39;;;;;;;2.10;0.47;;;;;;;;;;10239030;28;20047;-66
2022/07/06 09:33:36;;;;;;;;;;;;;;;;;;10229966;28;20497;-66
2022/07/06 09:38:33;;;;;;;3.00;0.82;;;;;;;;;;10235385;28;20019;-66
2022/07/06 09:43:31;;;;;;;4.55;0.35;;;;;;;;;;10228045;28;20034;-66
2022/07/06 09:48:27;;;;;;;3.15;0.40;;;;;;;;;;10231123;28;20092;-65
2022/07/06 09:53:26;;;;;;;3.28;0.75;;;;;;;;;;10229290;28;20082;-65
2022/07/06 09:58:22;;;;;;;3.42;0.70;;;;;;;;;;10242453;28;20126;-66
2022/07/06 10:03:39;;;;;;;4.05;1.10;;;;;;;;;;10225835;28;20050;-66
2022/07/06 10:08:36;;;;;;;2.50;0.60;;;;;;;;;;10206587;28;20052;-66
2022/07/06 10:13:33;;;;;;;3.28;0.60;;;;;;;;;;10204446;28;20152;-66
2022/07/06 10:18:29;;;;;;;5.05;1.02;;;;;;;;;;10210178;28;20076;-65
2022/07/06 10:23:27;;;;;;;5.38;0.82;;;;;;;;;;10215513;28;20041;-65
2022/07/06 10:28:23;;;;;;;2.65;0.50;;;;;;;;;;10220347;28;20045;-65
2022/07/06 10:33:21;;;;;;;4.07;0.73;;;;;;;;;;10223161;28;20044;-65
2022/07/06 10:38:30;;;;;;;3.13;0.40;;;;;;;;;;10223595;28;20041;-65
2022/07/06 10:43:33;;;;;;;5.65;1.10;;;;;;;;;;10212881;28;20626;-65
2022/07/06 10:48:37;;;;;;;5.38;0.90;;;;;;;;;;10217132;28;20099;-66
2022/07/06 10:53:34;;;;;;;4.15;0.75;;;;;;;;;;10218616;28;20128;-66
2022/07/06 10:58:39;;;;;;;3.08;0.50;;;;;;;;;;10222721;28;20072;-65
2022/07/06 11:03:46;;;;;;;4.20;0.70;;;;;;;;;;10220925;28;20188;-65
2022/07/06 11:08:42;;;;;;;4.43;0.50;;;;;;;;;;10213608;28;20056;-65
2022/07/06 11:13:42;;;;;;;4.82;1.35;;;;;;;;;;10242566;28;20073;-64
2022/07/06 11:18:45;;;;;;;5.63;0.80;;;;;;;;;;10236350;28;20096;-65
2022/07/06 11:23:42;;;;;;;4.97;0.60;;;;;;;;;;10220604;28;20073;-65
2022/07/06 11:28:39;;;;;;;3.08;0.73;;;;;;;;;;10277231;28;20084;-65
2022/07/06 11:33:35;;;;;;;7.50;0.60;;;;;;;;;;10247034;28;20049;-64
2022/07/06 11:38:31;;;;;;;3.03;0.60;;;;;;;;;;10224012;28;20134;-65
2022/07/06 11:43:28;;;;;;;4.20;0.50;;;;;;;;;;10231361;28;20116;-65
2022/07/06 11:48:24;;;;;;;4.07;0.47;;;;;;;;;;10240815;28;20081;-65
2022/07/06 11:53:20;;;;;;;6.18;1.10;;;;;;;;;;10227184;28;20103;-64
2022/07/06 11:58:23;;;;;;;2.25;0.43;;;;;;;;;;10237106;28;20095;-65
2022/07/06 12:03:19;;;;;;;;;;;;;;;;;;10225018;28;20076;-65
2022/07/06 12:08:21;;;;;;;2.63;0.50;;;;;;;;;;10236586;28;20015;-65
2022/07/06 12:13:17;;;;;;;11.38;1.08;;;;;;;;;;10246552;28;20131;-65
2022/07/06 12:18:14;;;;;;;2.35;0.38;;;;;;;;;;10238355;28;20088;-64
2022/07/06 12:23:11;;;;;;;4.50;0.40;;;;;;;;;;10271228;28;20053;-65
2022/07/06 12:28:21;;;;;;;5.57;0.68;;;;;;;;;;10271978;28;20491;-65
2022/07/06 12:33:18;;;;;;;4.47;0.70;;;;;;;;;;10270086;28;20491;-65
2022/07/06 12:38:24;;;;;;;4.05;0.55;;;;;;;;;;10283678;28;20084;-65
2022/07/06 12:43:36;;;;;;;5.80;0.52;;;;;;;;;;10273778;28;20068;-65
2022/07/06 12:48:50;;;;;;;5.87;0.83;;;;;;;;;;10277027;28;20068;-65
2022/07/06 12:53:46;;;;;;;3.97;0.90;;;;;;;;;;10264555;28;20505;-66
2022/07/06 12:58:59;;;;;;;3.25;0.57;;;;;;;;;;10278260;28;20045;-66
2022/07/06 13:03:56;;;;;;;13.55;2.40;;;;;;;;;;10240544;28;20075;-65
2022/07/06 13:08:52;;;;;;;6.05;0.70;;;;;;;;;;10229086;28;20504;-65
2022/07/06 13:13:49;;;;;;;3.35;0.40;;;;;;;;;;10238918;28;20553;-65
2022/07/06 13:18:45;;;;;;;3.38;0.40;;;;;;;;;;10239673;28;20100;-65
2022/07/06 13:23:41;;;;;;;4.60;0.93;;;;;;;;;;10230013;28;20041;-65
2022/07/06 13:28:38;;;;;;;5.40;0.85;;;;;;;;;;10230206;28;20131;-65
2022/07/06 13:33:34;;;;;;;3.10;0.40;;;;;;;;;;10221660;28;20100;-64
2022/07/06 13:38:30;;;;;;;2.08;0.35;;;;;;;;;;10237331;28;20080;-65
2022/07/06 13:43:35;;;;;;;4.15;0.40;;;;;;;;;;10231070;28;20045;-65
2022/07/06 13:48:32;;;;;;;4.47;0.65;;;;;;;;;;10226383;28;20106;-65
2022/07/06 13:53:31;;;;;;;4.88;0.80;;;;;;;;;;10214211;28;20045;-65
2022/07/06 13:58:27;;;;;;;3.78;0.70;;;;;;;;;;10219241;28;20143;-65
2022/07/06 14:03:29;;;;;;;2.72;0.52;;;;;;;;;;10223632;28;20063;-65
2022/07/06 14:08:26;;;;;;;;;;;;;;;;;;10222562;28;20048;-65
2022/07/06 14:13:22;;;;;;;1.75;0.25;;;;;;;;;;10218980;28;20050;-66
2022/07/06 14:18:19;;;;;;;3.45;0.82;;;;;;;;;;10215946;28;20132;-64
2022/07/06 14:23:16;;;;;;;3.53;0.30;;;;;;;;;;10233770;28;20398;-65
2022/07/06 14:28:16;;;;;;;1.52;0.40;;;;;;;;;;10230382;28;20469;-65
2022/07/06 14:33:14;;;;;;;6.65;0.60;;;;;;;;;;10241646;28;20045;-65
2022/07/06 14:38:10;;;;;;;1.25;0.17;;;;;;;;;;10237959;28;20049;-65
2022/07/06 14:43:07;;;;;;;3.35;0.77;;;;;;;;;;10245097;28;20049;-65
2022/07/06 14:48:05;;;;;;;2.63;0.55;;;;;;;;;;10254633;28;20084;-65
2022/07/06 14:53:01;;;;;;;1.83;0.40;;;;;;;;;;10235371;28;20491;-65
2022/07/06 14:57:58;;;;;;;3.33;0.40;;;;;;;;;;10227532;28;20056;-65
2022/07/06 15:02:54;;;;;;;6.50;0.80;;;;;;;;;;10212976;28;20494;-65
2022/07/06 15:07:50;;;;;;;1.75;0.30;;;;;;;;;;10213463;28;20117;-65
2022/07/06 15:12:51;;;;;;;2.08;0.30;;;;;;;;;;10213996;28;20053;-65
2022/07/06 15:17:47;;;;;;;1.98;0.40;;;;;;;;;;10210759;28;20064;-65
2022/07/06 15:22:44;;;;;;;5.30;0.60;;;;;;;;;;10220133;28;20156;-65
2022/07/06 15:27:41;;;;;;;3.38;0.80;;;;;;;;;;10218660;28;20080;-65
2022/07/06 15:32:37;;;;;;;2.65;0.70;;;;;;;;;;10225110;28;20132;-64
2022/07/06 15:37:34;;;;;;;2.95;0.40;;;;;;;;;;10228480;28;20038;-64
2022/07/06 15:42:31;;;;;;;5.20;0.80;;;;;;;;;;10222420;28;20124;-64
2022/07/06 15:47:27;;;;;;;4.70;0.68;;;;;;;;;;10224449;28;20053;-64
2022/07/06 15:52:23;;;;;;;9.00;1.58;;;;;;;;;;10225380;28;20727;-64
2022/07/06 15:57:20;;;;;;;2.60;0.80;;;;;;;;;;10222337;28;20045;-65
2022/07/06 16:02:19;;;;;;;3.30;1.17;;;;;;;;;;10225093;28;20038;-64
2022/07/06 16:07:15;;;;;;;4.30;0.98;;;;;;;;;;10227995;28;20425;-65
2022/07/06 16:12:32;;;;;;;3.75;0.70;;;;;;;;;;10220407;28;20051;-64
2022/07/06 16:17:28;;;;;;;2.78;0.70;;;;;;;;;;10191527;28;20731;-65
2022/07/06 16:22:25;;;;;;;4.78;0.90;;;;;;;;;;10197978;28;20047;-67
2022/07/06 16:27:21;;;;;;;2.38;0.68;;;;;;;;;;10214405;28;20046;-67
2022/07/06 16:32:18;;;;;;;5.32;1.20;;;;;;;;;;10208908;28;20085;-67
2022/07/06 16:37:14;;;;;;;4.85;1.17;;;;;;;;;;10214575;28;20049;-67
2022/07/06 16:42:11;;;;;;;9.80;2.10;;;;;;;;;;10200288;28;20099;-67
2022/07/06 16:47:07;;;;;;;7.75;1.00;;;;;;;;;;10214097;28;20072;-67
2022/07/06 16:52:04;;;;;;;5.32;1.02;;;;;;;;;;10199039;28;20589;-67
2022/07/06 16:57:01;;;;;;;5.97;0.88;;;;;;;;;;10203626;28;20068;-67
2022/07/06 17:01:57;;;;;;;5.97;1.25;;;;;;;;;;10203649;28;20073;-67
2022/07/06 17:06:54;;;;;;;3.65;0.90;;;;;;;;;;10192733;28;20453;-67
2022/07/06 17:11:51;;;;;;;5.88;0.77;;;;;;;;;;10194420;28;20049;-67
2022/07/06 17:16:47;;;;;;;4.00;1.13;;;;;;;;;;10203410;28;20045;-67
2022/07/06 17:21:44;;;;;;;3.35;0.73;;;;;;;;;;10219738;28;20052;-67
2022/07/06 17:26:46;;;;;;;64.68;40.28;;;;;;;;;;10200619;28;20088;-67
2022/07/06 17:31:42;;;;;;;1.73;0.50;;;;;;;;;;10205740;28;20045;-67
2022/07/06 17:36:38;;;;;;;38.33;22.15;;;;;;;;;;10205182;28;20560;-67
2022/07/06 17:41:35;;;;;;;7.57;2.42;;;;;;;;;;10208264;28;20150;-67
2022/07/06 17:46:31;;;;;;;5.22;0.82;;;;;;;;;;10199278;28;20100;-67
2022/07/06 17:51:28;;;;;;;7.25;1.30;;;;;;;;;;10210202;28;20045;-67
2022/07/06 17:56:26;;;;;;;3.20;0.68;;;;;;;;;;10228783;28;20033;-67
2022/07/06 18:01:23;;;;;;;5.63;1.35;;;;;;;;;;10251284;28;20045;-68
2022/07/06 18:06:19;;;;;;;4.85;0.70;;;;;;;;;;10255622;28;20688;-68
2022/07/06 18:11:16;;;;;;;5.60;1.08;;;;;;;;;;10261927;28;20057;-67
2022/07/06 18:16:12;;;;;;;4.05;0.80;;;;;;;;;;10245971;28;20053;-69
2022/07/06 18:21:09;;;;;;;3.47;0.65;;;;;;;;;;10243961;28;20045;-68
2022/07/06 18:26:06;;;;;;;2.83;0.68;;;;;;;;;;10254067;28;20055;-68
2022/07/06 18:31:02;;;;;;;3.50;0.80;;;;;;;;;;10243865;28;20048;-68
2022/07/06 18:35:59;;;;;;;4.20;0.70;;;;;;;;;;10241931;28;20045;-68
2022/07/06 18:40:56;;;;;;;3.95;0.50;;;;;;;;;;10248275;28;20132;-66
2022/07/06 18:45:53;;;;;;;6.65;0.90;;;;;;;;;;10260536;28;20033;-66
2022/07/06 18:50:49;;;;;;;3.30;0.57;;;;;;;;;;10271859;28;20587;-66
2022/07/06 18:55:46;;;;;;;3.10;0.60;;;;;;;;;;10260096;28;20470;-66
2022/07/06 19:00:42;;;;;;;3.22;0.98;;;;;;;;;;10259127;28;20447;-66
2022/07/06 19:05:39;;;;;;;3.28;0.63;;;;;;;;;;10260043;28;20072;-66
2022/07/06 19:10:35;;;;;;;5.80;1.20;;;;;;;;;;10264348;28;20492;-66
2022/07/06 19:15:32;;;;;;;3.63;1.20;;;;;;;;;;10264916;28;20108;-66
2022/07/06 19:20:28;;;;;;;3.45;0.70;;;;;;;;;;10268392;28;20110;-66
2022/07/06 19:25:25;;;;;;;8.15;1.10;;;;;;;;;;10269801;28;20045;-66
2022/07/06 19:30:21;;;;;;;4.45;0.70;;;;;;;;;;10264300;28;20352;-66
2022/07/06 19:35:17;;;;;;;6.15;1.30;;;;;;;;;;10286334;28;21648;-66
2022/07/06 19:40:14;;;;;;;5.30;0.70;;;;;;;;;;10274116;28;20164;-67
2022/07/06 19:45:12;;;;;;;4.30;0.98;;;;;;;;;;10274567;28;20157;-66
2022/07/06 19:50:08;;;;;;;3.55;1.10;;;;;;;;;;10274470;28;20060;-66
2022/07/06 19:55:05;;;;;;;4.60;1.20;;;;;;;;;;10268651;28;20098;-66
2022/07/06 20:00:02;;;;;;;5.88;1.33;;;;;;;;;;10276471;28;20758;-66
2022/07/06 20:04:59;;;;;;;3.70;1.33;;;;;;;;;;10267726;28;20504;-66
2022/07/06 20:09:56;;;;;;;4.93;1.45;;;;;;;;;;10277771;28;20041;-65
2022/07/06 20:14:52;;;;;;;5.07;1.27;;;;;;;;;;10251655;28;20073;-66
2022/07/06 20:19:49;;;;;;;6.55;1.88;;;;;;;;;;10254010;28;20119;-65
2022/07/06 20:24:45;;;;;;;5.88;1.80;;;;;;;;;;10259507;28;20037;-67
2022/07/06 20:29:42;;;;;;;3.63;1.20;;;;;;;;;;10266853;28;20505;-66
2022/07/06 20:34:38;;;;;;;4.93;1.60;;;;;;;;;;10252269;28;20068;-66
2022/07/06 20:39:34;;;;;;;5.20;1.38;;;;;;;;;;10265680;28;20140;-66
2022/07/06 20:44:31;;;;;;;2.80;1.40;;;;;;;;;;10252274;28;20106;-66
2022/07/06 20:49:27;;;;;;;3.97;0.98;;;;;;;;;;10261720;28;20048;-67
2022/07/06 20:54:23;;;;;;;4.45;1.67;;;;;;;;;;10250350;28;20051;-66
2022/07/06 20:59:20;;;;;;;6.13;1.42;;;;;;;;;;10255570;28;20144;-65
2022/07/06 21:04:16;;;;;;;5.25;1.90;;;;;;;;;;10254057;28;20033;-65
2022/07/06 21:09:12;;;;;;;5.90;1.13;;;;;;;;;;10227004;28;20068;-65
2022/07/06 21:14:09;;;;;;;3.72;1.02;;;;;;;;;;10250343;28;20048;-67
2022/07/06 21:19:05;;;;;;;6.85;1.52;;;;;;;;;;10224935;28;20050;-67
2022/07/06 21:24:01;;;;;;;4.72;1.10;;;;;;;;;;10222080;28;20563;-67
2022/07/06 21:28:58;;;;;;;5.60;1.30;;;;;;;;;;10240998;28;20064;-67
2022/07/06 21:33:54;;;;;;;6.28;1.55;;;;;;;;;;10230342;28;20120;-67
2022/07/06 21:38:50;;;;;;;6.88;1.70;;;;;;;;;;10236397;28;20045;-65
2022/07/06 21:43:47;;;;;;;6.93;1.92;;;;;;;;;;10233120;28;20041;-65
2022/07/06 21:48:44;;;;;;;5.22;2.10;;;;;;;;;;10232291;28;20092;-65
2022/07/06 21:53:40;;;;;;;4.95;1.70;;;;;;;;;;10227842;28;20046;-66
2022/07/06 21:58:38;;;;;;;11.85;2.75;;;;;;;;;;10238646;28;20125;-64
2022/07/06 22:03:35;;;;;;;6.43;2.58;;;;;;;;;;10257350;28;20048;-65
2022/07/06 22:08:31;;;;;;;8.50;3.55;;;;;;;;;;10273659;28;20720;-66
2022/07/06 22:13:43;;;;;;;5.95;2.53;;;;;;;;;;10272194;28;20168;-66
2022/07/06 22:18:40;;;;;;;6.30;2.40;;;;;;;;;;10278588;28;20045;-66
2022/07/06 22:23:37;;;;;;;7.05;2.28;;;;;;;;;;10273030;28;20061;-65
2022/07/06 22:28:33;;;;;;;6.20;2.65;;;;;;;;;;10284490;28;20037;-65
2022/07/06 22:33:30;;;;;;;3.92;2.53;;;;;;;;;;10279825;28;20763;-65
2022/07/06 22:38:26;;;;;;;6.65;2.90;;;;;;;;;;10284834;28;20592;-65
2022/07/06 22:43:22;;;;;;;8.40;3.25;;;;;;;;;;10277503;28;20045;-66
2022/07/06 22:48:19;;;;;;;7.88;2.90;;;;;;;;;;10271788;28;20053;-66
2022/07/06 22:53:16;;;;;;;6.80;3.25;;;;;;;;;;10289782;28;20056;-65
2022/07/06 22:58:12;;;;;;;8.00;2.95;;;;;;;;;;10280157;28;20149;-65
2022/07/06 23:03:08;;;;;;;8.25;3.92;;;;;;;;;;10294961;28;20144;-64
2022/07/06 23:08:05;;;;;;;6.93;4.07;;;;;;;;;;10265987;28;20057;-64
2022/07/06 23:13:01;;;;;;;8.05;3.83;;;;;;;;;;10278242;28;20128;-64
2022/07/06 23:17:57;;;;;;;5.22;3.47;;;;;;;;;;10267270;28;20079;-64
2022/07/06 23:22:54;;;;;;;5.30;3.70;;;;;;;;;;10285033;28;20093;-64
2022/07/06 23:27:50;;;;;;;4.88;3.67;;;;;;;;;;10259837;28;20096;-65
2022/07/06 23:32:47;;;;;;;4.80;3.33;;;;;;;;;;10284206;28;20916;-64
2022/07/06 23:37:43;;;;;;;6.30;3.78;;;;;;;;;;10276288;28;20064;-66
2022/07/06 23:42:39;;;;;;;6.15;4.20;;;;;;;;;;10279897;28;20128;-66
2022/07/06 23:47:36;;;;;;;6.38;4.43;;;;;;;;;;10283623;28;20072;-66
2022/07/06 23:52:32;;;;;;;12.45;4.20;;;;;;;;;;10295450;28;20592;-66
2022/07/06 23:57:29;;;;;;;5.07;3.58;;;;;;;;;;10271731;28;20064;-66
